createdAt,value
2019-05-29T00:03:28.979Z,9.60
2019-05-29T00:08:32.421Z,9.35
2019-05-29T00:13:35.842Z,9.69
2019-05-29T00:18:40.083Z,9.41
2019-05-29T00:23:43.654Z,9.22
2019-05-29T00:28:47.103Z,8.75
2019-05-29T00:33:50.604Z,8.75
2019-05-29T00:38:54.025Z,8.46
2019-05-29T00:43:57.460Z,8.51
2019-05-29T00:49:00.890Z,8.61
2019-05-29T00:54:04.378Z,8.99
2019-05-29T00:59:08.926Z,8.85
2019-05-29T01:04:13.564Z,8.81
2019-05-29T01:09:18.296Z,8.39
2019-05-29T01:14:22.024Z,8.42
2019-05-29T01:19:25.650Z,8.58
2019-05-29T01:24:29.063Z,8.68
2019-05-29T01:29:32.478Z,8.57
2019-05-29T01:34:35.899Z,8.62
2019-05-29T01:39:39.602Z,8.81
2019-05-29T01:44:43.040Z,8.82
2019-05-29T01:49:46.454Z,8.79
2019-05-29T01:54:49.884Z,8.59
2019-05-29T01:59:53.347Z,8.88
2019-05-29T02:04:56.800Z,8.49
2019-05-29T02:10:00.261Z,7.96
2019-05-29T02:15:05.671Z,8.02
2019-05-29T02:20:09.722Z,8.03
2019-05-29T02:25:16.035Z,8.23
2019-05-29T02:30:21.098Z,8.51
2019-05-29T02:35:25.203Z,8.11
2019-05-29T02:40:30.115Z,8.00
2019-05-29T02:45:52.969Z,8.03
2019-05-29T02:50:38.756Z,7.90
2019-05-29T02:55:42.199Z,7.62
2019-05-29T03:00:51.908Z,7.48
2019-05-29T03:05:56.283Z,7.68
2019-05-29T03:10:59.699Z,7.66
2019-05-29T03:16:11.321Z,7.64
2019-05-29T03:21:08.610Z,7.42
2019-05-29T03:26:12.043Z,7.45
2019-05-29T03:31:15.602Z,7.12
2019-05-29T03:36:19.006Z,7.41
2019-05-29T03:41:22.412Z,7.39
2019-05-29T03:46:34.267Z,7.34
2019-05-29T03:51:32.573Z,7.71
2019-05-29T03:56:36.140Z,7.86
2019-05-29T04:01:39.590Z,7.64
2019-05-29T04:06:47.075Z,7.73
2019-05-29T04:11:48.347Z,7.47
2019-05-29T04:16:59.781Z,7.62
2019-05-29T04:22:00.976Z,7.42
2019-05-29T04:27:04.798Z,7.40
2019-05-29T04:32:08.280Z,7.40
2019-05-29T04:37:13.322Z,7.32
2019-05-29T04:42:16.756Z,7.39
2019-05-29T04:47:20.200Z,7.71
2019-05-29T04:52:23.630Z,7.89
2019-05-29T04:57:27.032Z,7.83
2019-05-29T05:02:31.093Z,8.07
2019-05-29T05:07:35.372Z,8.28
2019-05-29T05:12:40.156Z,8.39
2019-05-29T05:17:43.691Z,8.43
2019-05-29T05:22:47.102Z,8.69
2019-05-29T05:27:50.507Z,8.75
2019-05-29T05:32:53.986Z,8.99
2019-05-29T05:37:58.458Z,9.15
2019-05-29T05:43:01.965Z,9.11
2019-05-29T05:48:05.481Z,9.18
2019-05-29T05:53:08.888Z,9.17
2019-05-29T05:58:12.310Z,9.26
2019-05-29T06:03:15.737Z,9.33
2019-05-29T06:08:19.161Z,9.49
2019-05-29T06:13:22.580Z,9.55
2019-05-29T06:18:26.001Z,9.60
2019-05-29T06:23:29.450Z,9.68
2019-05-29T06:28:33.068Z,9.76
2019-05-29T06:33:37.372Z,9.83
2019-05-29T06:38:42.142Z,9.99
2019-05-29T06:43:46.629Z,10.20
2019-05-29T06:48:59.366Z,10.45
2019-05-29T06:53:55.259Z,10.75
2019-05-29T06:58:58.851Z,11.06
2019-05-29T07:04:11.733Z,11.38
2019-05-29T07:09:07.566Z,11.66
2019-05-29T07:14:11.083Z,12.03
2019-05-29T07:19:47.590Z,12.29
2019-05-29T07:24:19.746Z,12.59
2019-05-29T07:29:23.194Z,12.77
2019-05-29T07:34:26.587Z,13.19
2019-05-29T07:39:30.025Z,13.58
2019-05-29T07:44:33.445Z,13.68
2019-05-29T07:49:39.866Z,13.89
2019-05-29T07:54:43.353Z,13.97
2019-05-29T07:59:47.134Z,14.22
2019-05-29T08:04:50.563Z,14.35
2019-05-29T08:09:53.966Z,14.54
2019-05-29T08:14:57.385Z,14.83
2019-05-29T08:20:06.818Z,15.09
2019-05-29T08:25:07.018Z,14.50
2019-05-29T08:30:11.979Z,15.14
2019-05-29T08:35:15.665Z,15.21
2019-05-29T08:40:19.418Z,15.63
2019-05-29T08:45:23.100Z,16.15
2019-05-29T08:50:26.538Z,15.60
2019-05-29T08:55:29.971Z,16.09
2019-05-29T09:00:33.413Z,16.63
2019-05-29T09:05:36.822Z,17.13
2019-05-29T09:10:40.277Z,17.29
2019-05-29T09:15:43.711Z,17.87
2019-05-29T09:21:02.220Z,18.06
2019-05-29T09:25:52.638Z,17.53
2019-05-29T09:30:56.066Z,17.02
2019-05-29T09:35:59.659Z,17.83
2019-05-29T09:41:03.095Z,18.24
2019-05-29T09:46:06.507Z,18.44
2019-05-29T09:51:20.713Z,18.47
2019-05-29T09:56:15.081Z,19.15
2019-05-29T10:01:23.933Z,19.24
2019-05-29T10:06:23.705Z,19.00
2019-05-29T10:11:27.142Z,19.83
2019-05-29T10:16:30.558Z,20.10
2019-05-29T10:21:40.647Z,20.90
2019-05-29T10:26:39.225Z,20.50
2019-05-29T10:31:46.755Z,21.17
2019-05-29T10:36:50.396Z,20.78
2019-05-29T10:41:53.250Z,21.22
2019-05-29T10:46:56.803Z,21.71
2019-05-29T10:52:13.813Z,21.60
2019-05-29T10:57:05.403Z,21.84
2019-05-29T11:02:09.118Z,22.38
2019-05-29T11:07:12.605Z,22.20
2019-05-29T11:12:16.070Z,22.59
2019-05-29T11:17:19.594Z,22.58
2019-05-29T11:22:26.594Z,22.92
2019-05-29T11:27:28.353Z,23.18
2019-05-29T11:32:31.769Z,23.44
2019-05-29T11:37:35.203Z,24.00
2019-05-29T11:42:38.629Z,24.01
2019-05-29T11:47:42.066Z,22.54
2019-05-29T11:52:45.499Z,22.95
2019-05-29T11:57:48.911Z,23.30
2019-05-29T12:02:53.737Z,22.69
2019-05-29T12:07:57.587Z,22.27
2019-05-29T12:13:01.710Z,21.39
2019-05-29T12:18:22.723Z,20.67
2019-05-29T12:23:24.774Z,20.43
2019-05-29T12:28:16.930Z,21.41
2019-05-29T12:33:20.309Z,22.31
2019-05-29T12:38:23.744Z,23.07
2019-05-29T12:43:28.214Z,23.97
2019-05-29T12:48:32.028Z,24.65
2019-05-29T12:53:35.491Z,25.02
2019-05-29T12:58:38.911Z,24.94
2019-05-29T13:03:45.409Z,25.88
2019-05-29T13:08:47.484Z,25.82
2019-05-29T13:13:50.903Z,25.53
2019-05-29T13:18:54.875Z,25.51
2019-05-29T13:24:01.897Z,25.11
2019-05-29T13:29:04.239Z,25.20
2019-05-29T13:34:07.789Z,25.79
2019-05-29T13:39:11.291Z,25.11
2019-05-29T13:44:14.730Z,25.27
2019-05-29T13:49:18.174Z,25.36
2019-05-29T13:54:21.635Z,25.23
2019-05-29T13:59:25.085Z,25.20
2019-05-29T14:04:28.513Z,25.27
2019-05-29T14:09:32.046Z,25.94
2019-05-29T14:14:35.467Z,26.74
2019-05-29T14:19:38.885Z,26.79
2019-05-29T14:24:42.393Z,26.74
2019-05-29T14:29:45.828Z,26.58
2019-05-29T14:34:49.238Z,26.68
2019-05-29T14:39:52.670Z,26.24
2019-05-29T14:44:56.176Z,26.17
2019-05-29T14:49:59.610Z,26.55
2019-05-29T14:55:04.477Z,26.22
2019-05-29T15:00:20.949Z,26.00
2019-05-29T15:05:16.419Z,26.11
2019-05-29T15:10:26.744Z,26.45
2019-05-29T15:15:25.771Z,25.67
2019-05-29T15:20:29.232Z,25.99
2019-05-29T15:25:32.675Z,26.42
2019-05-29T15:30:36.128Z,25.30
2019-05-29T15:35:39.589Z,26.25
2019-05-29T15:40:43.000Z,26.58
2019-05-29T15:45:47.069Z,26.62
2019-05-29T15:50:50.500Z,26.65
2019-05-29T15:55:53.936Z,26.71
2019-05-29T16:00:57.376Z,25.64
2019-05-29T16:06:00.816Z,25.17
2019-05-29T16:11:04.221Z,24.73
2019-05-29T16:16:09.331Z,25.64
2019-05-29T16:21:12.954Z,26.01
2019-05-29T16:26:18.272Z,25.96
2019-05-29T16:31:22.914Z,25.67
2019-05-29T16:36:26.531Z,24.95
2019-05-29T16:41:29.968Z,24.98
2019-05-29T16:46:33.411Z,24.66
2019-05-29T16:51:36.871Z,24.83
2019-05-29T16:56:40.286Z,24.73
2019-05-29T17:01:43.717Z,24.47
2019-05-29T17:06:47.159Z,23.74
2019-05-29T17:11:50.597Z,23.68
2019-05-29T17:16:54.238Z,23.20
2019-05-29T17:21:57.701Z,22.91
2019-05-29T17:27:01.122Z,22.26
2019-05-29T17:32:04.607Z,21.91
2019-05-29T17:37:08.111Z,21.74
2019-05-29T17:42:11.521Z,21.15
2019-05-29T17:47:15.756Z,21.12
2019-05-29T17:52:19.747Z,20.86
2019-05-29T17:57:23.912Z,20.64
2019-05-29T18:02:27.470Z,20.33
2019-05-29T18:07:30.964Z,20.07
2019-05-29T18:12:34.383Z,19.89
2019-05-29T18:17:37.811Z,19.57
2019-05-29T18:22:41.244Z,19.39
2019-05-29T18:27:44.665Z,19.13
2019-05-29T18:32:48.115Z,18.78
2019-05-29T18:37:51.527Z,18.61
2019-05-29T18:42:54.947Z,18.52
2019-05-29T18:47:58.391Z,18.19
2019-05-29T18:53:01.888Z,18.07
2019-05-29T18:58:05.395Z,17.91
2019-05-29T19:03:08.790Z,17.46
2019-05-29T19:08:12.212Z,16.98
2019-05-29T19:13:16.927Z,17.06
2019-05-29T19:18:20.371Z,16.80
2019-05-29T19:23:24.645Z,16.57
2019-05-29T19:28:28.643Z,16.43
2019-05-29T19:33:32.125Z,16.38
2019-05-29T19:38:35.533Z,16.08
2019-05-29T19:43:38.987Z,15.80
2019-05-29T19:48:42.426Z,15.61
2019-05-29T19:53:45.870Z,15.33
2019-05-29T19:58:49.338Z,15.25
2019-05-29T20:03:52.751Z,15.19
2019-05-29T20:08:56.189Z,15.05
2019-05-29T20:13:59.625Z,15.07
2019-05-29T20:19:03.051Z,15.16
2019-05-29T20:24:06.503Z,15.05
2019-05-29T20:29:09.937Z,15.09
2019-05-29T20:34:13.361Z,15.00
2019-05-29T20:39:16.779Z,15.00
2019-05-29T20:44:20.228Z,15.05
2019-05-29T20:49:23.751Z,15.07
2019-05-29T20:54:27.176Z,15.06
2019-05-29T20:59:31.736Z,14.96
2019-05-29T21:04:36.352Z,14.94
2019-05-29T21:09:41.071Z,14.87
2019-05-29T21:14:44.770Z,14.80
2019-05-29T21:19:48.183Z,14.67
2019-05-29T21:25:01.071Z,14.58
2019-05-29T21:29:56.806Z,14.68
2019-05-29T21:35:00.238Z,14.51
2019-05-29T21:40:05.706Z,14.42
2019-05-29T21:45:10.864Z,14.42
2019-05-29T21:50:15.657Z,14.39
2019-05-29T21:55:19.209Z,14.31
2019-05-29T22:00:44.551Z,14.23
2019-05-29T22:05:48.838Z,14.21
2019-05-29T22:10:53.443Z,14.15
2019-05-29T22:15:57.035Z,14.22
2019-05-29T22:21:01.663Z,14.22
2019-05-29T22:26:05.194Z,14.04
2019-05-29T22:31:08.596Z,14.01
2019-05-29T22:36:12.021Z,13.98
2019-05-29T22:41:15.439Z,13.96
2019-05-29T22:46:18.870Z,13.95
2019-05-29T22:51:22.358Z,13.85
2019-05-29T22:56:25.813Z,13.79
2019-05-29T23:01:29.247Z,13.68
2019-05-29T23:06:32.693Z,13.65
2019-05-29T23:11:36.137Z,13.68
2019-05-29T23:16:39.571Z,13.62
2019-05-29T23:21:43.003Z,13.64
2019-05-29T23:26:46.435Z,13.53
2019-05-29T23:31:49.888Z,13.52
2019-05-29T23:36:53.382Z,13.52
2019-05-29T23:41:57.283Z,13.49
2019-05-29T23:47:01.792Z,13.38
2019-05-29T23:52:05.458Z,13.34
2019-05-29T23:57:08.889Z,13.34
